createdAt,value
2022-12-19T00:01:32.176Z,19.20
2022-12-19T00:04:01.148Z,17.27
2022-12-19T00:06:28.860Z,20.58
2022-12-19T00:08:58.746Z,21.77
2022-12-19T00:11:25.956Z,16.60
2022-12-19T00:13:52.742Z,17.35
2022-12-19T00:16:21.916Z,19.73
2022-12-19T00:18:49.844Z,19.10
2022-12-19T00:21:19.004Z,19.02
2022-12-19T00:23:46.427Z,17.73
2022-12-19T00:26:22.113Z,16.90
2022-12-19T00:29:00.038Z,19.90
2022-12-19T00:31:30.172Z,18.92
2022-12-19T00:33:57.870Z,17.35
2022-12-19T00:36:27.184Z,21.00
2022-12-19T00:38:55.139Z,22.20
2022-12-19T00:41:25.486Z,17.80
2022-12-19T00:43:53.882Z,18.25
2022-12-19T00:46:20.727Z,18.25
2022-12-19T00:48:47.359Z,22.13
2022-12-19T00:51:23.131Z,20.48
2022-12-19T00:53:50.954Z,24.10
2022-12-19T00:56:24.287Z,22.40
2022-12-19T00:58:51.078Z,18.25
2022-12-19T01:01:21.232Z,19.60
2022-12-19T01:04:26.157Z,19.45
2022-12-19T01:06:35.179Z,18.07
2022-12-19T01:09:02.255Z,22.73
2022-12-19T01:11:47.301Z,21.98
2022-12-19T01:14:20.788Z,24.35
2022-12-19T01:16:49.634Z,21.65
2022-12-19T01:19:16.247Z,24.17
2022-12-19T01:21:42.762Z,23.75
2022-12-19T01:24:11.947Z,22.58
2022-12-19T01:26:39.334Z,25.33
2022-12-19T01:29:06.661Z,26.52
2022-12-19T01:31:33.582Z,23.07
2022-12-19T01:34:02.554Z,33.25
2022-12-19T01:36:29.642Z,25.73
2022-12-19T01:38:57.694Z,33.17
2022-12-19T01:41:26.602Z,23.75
2022-12-19T01:44:01.846Z,24.57
2022-12-19T01:46:41.500Z,23.85
2022-12-19T01:49:15.838Z,30.83
2022-12-19T01:51:46.975Z,27.02
2022-12-19T01:54:26.950Z,25.38
2022-12-19T01:57:01.375Z,28.60
2022-12-19T01:59:41.388Z,30.85
2022-12-19T02:02:13.481Z,28.23
2022-12-19T02:04:41.793Z,29.10
2022-12-19T02:07:15.844Z,29.38
2022-12-19T02:09:45.619Z,25.50
2022-12-19T02:12:13.282Z,26.25
2022-12-19T02:14:40.676Z,25.73
2022-12-19T02:17:45.257Z,27.63
2022-12-19T02:20:30.416Z,27.35
2022-12-19T02:23:24.741Z,27.47
2022-12-19T02:26:00.385Z,29.08
2022-12-19T02:28:43.031Z,25.92
2022-12-19T02:31:16.741Z,24.65
2022-12-19T02:34:12.354Z,28.77
2022-12-19T02:37:04.073Z,33.33
2022-12-19T02:39:42.747Z,29.48
2022-12-19T02:42:13.760Z,34.03
2022-12-19T02:44:47.282Z,35.72
2022-12-19T02:47:16.413Z,31.58
2022-12-19T02:49:43.276Z,28.17
2022-12-19T02:52:11.119Z,39.00
2022-12-19T02:54:39.055Z,30.67
2022-12-19T02:57:51.189Z,28.80
2022-12-19T03:00:21.815Z,32.63
2022-12-19T03:03:29.436Z,28.43
2022-12-19T03:06:16.977Z,27.83
2022-12-19T03:08:52.298Z,31.48
2022-12-19T03:11:21.946Z,33.00
2022-12-19T03:13:56.285Z,34.92
2022-12-19T03:16:24.728Z,33.07
2022-12-19T03:18:51.877Z,27.95
2022-12-19T03:21:39.364Z,36.47
2022-12-19T03:24:08.116Z,32.60
2022-12-19T03:26:41.380Z,28.17
2022-12-19T03:29:35.618Z,28.13
2022-12-19T03:32:05.564Z,40.17
2022-12-19T03:34:38.189Z,33.38
2022-12-19T03:37:07.682Z,30.23
2022-12-19T03:39:35.308Z,33.13
2022-12-19T03:42:23.503Z,33.03
2022-12-19T03:44:51.369Z,31.33
2022-12-19T03:47:22.796Z,30.45
2022-12-19T03:49:50.076Z,23.67
2022-12-19T03:52:59.552Z,30.33
2022-12-19T03:55:41.448Z,26.93
2022-12-19T03:58:12.511Z,29.92
2022-12-19T04:00:44.029Z,31.63
2022-12-19T04:03:11.632Z,33.20
2022-12-19T04:05:40.290Z,33.65
2022-12-19T04:08:08.938Z,34.17
2022-12-19T04:10:41.601Z,35.03
2022-12-19T04:13:16.205Z,32.80
2022-12-19T04:15:57.836Z,33.22
2022-12-19T04:18:24.543Z,35.58
2022-12-19T04:20:59.173Z,27.93
2022-12-19T04:23:37.290Z,38.17
2022-12-19T04:26:05.487Z,30.98
2022-12-19T04:28:46.888Z,39.22
2022-12-19T04:31:15.264Z,29.95
2022-12-19T04:33:42.026Z,36.33
2022-12-19T04:36:10.171Z,33.22
2022-12-19T04:38:37.102Z,38.38
2022-12-19T04:41:03.633Z,35.40
2022-12-19T04:43:30.126Z,33.85
2022-12-19T04:45:57.823Z,28.80
2022-12-19T04:48:25.456Z,29.58
2022-12-19T04:50:52.172Z,28.00
2022-12-19T04:53:18.912Z,34.42
2022-12-19T04:55:45.677Z,36.20
2022-12-19T04:58:14.518Z,33.63
2022-12-19T05:00:44.142Z,35.45
2022-12-19T05:03:10.752Z,32.67
2022-12-19T05:05:37.295Z,29.58
2022-12-19T05:08:03.832Z,30.48
2022-12-19T05:10:30.317Z,33.80
2022-12-19T05:12:56.774Z,36.17
2022-12-19T05:15:23.477Z,31.75
2022-12-19T05:17:50.006Z,30.10
2022-12-19T05:20:16.610Z,29.35
2022-12-19T05:22:43.127Z,29.33
2022-12-19T05:25:09.707Z,27.40
2022-12-19T05:27:36.196Z,26.77
2022-12-19T05:30:02.782Z,30.65
2022-12-19T05:32:33.726Z,32.90
2022-12-19T05:35:00.231Z,28.60
2022-12-19T05:37:26.749Z,29.52
2022-12-19T05:39:53.249Z,29.35
2022-12-19T05:42:19.764Z,27.00
2022-12-19T05:44:46.244Z,32.40
2022-12-19T05:47:12.927Z,26.73
2022-12-19T05:49:39.399Z,33.10
2022-12-19T05:52:05.912Z,26.05
2022-12-19T05:54:32.656Z,30.73
2022-12-19T05:56:59.288Z,31.83
2022-12-19T05:59:26.254Z,31.43
2022-12-19T06:01:54.105Z,28.48
2022-12-19T06:04:20.697Z,30.17
2022-12-19T06:06:47.229Z,27.70
2022-12-19T06:09:13.720Z,27.67
2022-12-19T06:11:40.140Z,30.80
2022-12-19T06:14:06.619Z,25.70
2022-12-19T06:16:33.222Z,30.25
2022-12-19T06:18:59.734Z,29.38
2022-12-19T06:21:26.269Z,35.17
2022-12-19T06:23:52.801Z,31.93
2022-12-19T06:26:20.684Z,27.90
2022-12-19T06:28:52.063Z,26.10
2022-12-19T06:31:20.334Z,26.70
2022-12-19T06:33:47.006Z,24.75
2022-12-19T06:36:20.908Z,25.50
2022-12-19T06:38:48.552Z,26.83
2022-12-19T06:41:34.537Z,26.88
2022-12-19T06:44:02.015Z,27.23
2022-12-19T06:46:29.183Z,27.48
2022-12-19T06:48:55.701Z,30.77
2022-12-19T06:51:23.065Z,29.23
2022-12-19T06:53:50.040Z,28.85
2022-12-19T06:56:17.548Z,27.48
2022-12-19T06:58:44.639Z,22.25
2022-12-19T07:01:32.204Z,22.77
2022-12-19T07:03:59.597Z,21.63
2022-12-19T07:06:26.175Z,19.08
2022-12-19T07:08:53.282Z,20.85
2022-12-19T07:11:19.794Z,20.77
2022-12-19T07:13:46.212Z,23.37
2022-12-19T07:16:12.733Z,24.52
2022-12-19T07:18:40.489Z,22.05
2022-12-19T07:21:08.406Z,25.55
2022-12-19T07:23:35.447Z,26.02
2022-12-19T07:26:02.063Z,22.83
2022-12-19T07:28:28.832Z,23.50
2022-12-19T07:30:55.449Z,23.60
2022-12-19T07:33:22.311Z,21.70
2022-12-19T07:35:49.138Z,21.88
2022-12-19T07:38:15.885Z,22.40
2022-12-19T07:40:42.355Z,22.33
2022-12-19T07:43:10.235Z,23.58
2022-12-19T07:45:38.375Z,27.27
2022-12-19T07:48:06.606Z,22.58
2022-12-19T07:50:33.473Z,21.80
2022-12-19T07:53:00.526Z,20.98
2022-12-19T07:55:27.248Z,19.63
2022-12-19T07:57:55.188Z,21.05
2022-12-19T08:00:21.956Z,18.80
2022-12-19T08:02:48.516Z,24.73
2022-12-19T08:05:15.198Z,22.23
2022-12-19T08:07:41.776Z,23.48
2022-12-19T08:10:09.075Z,18.63
2022-12-19T08:12:35.713Z,20.23
2022-12-19T08:15:02.166Z,20.77
2022-12-19T08:17:28.731Z,21.00
2022-12-19T08:19:55.269Z,20.98
2022-12-19T08:22:22.861Z,25.42
2022-12-19T08:24:49.477Z,23.15
2022-12-19T08:27:17.230Z,22.40
2022-12-19T08:29:44.016Z,20.20
2022-12-19T08:32:13.224Z,19.63
2022-12-19T08:34:42.229Z,19.80
2022-12-19T08:37:09.445Z,22.67
2022-12-19T08:39:35.938Z,22.23
2022-12-19T08:42:02.563Z,19.60
2022-12-19T08:44:29.207Z,19.60
2022-12-19T08:46:55.686Z,21.67
2022-12-19T08:49:22.198Z,22.25
2022-12-19T08:51:48.681Z,21.47
2022-12-19T08:54:15.364Z,20.25
2022-12-19T08:56:46.184Z,18.85
2022-12-19T08:59:14.870Z,20.45
2022-12-19T09:01:46.389Z,21.05
2022-12-19T09:05:57.732Z,20.13
2022-12-19T09:06:59.485Z,21.33
2022-12-19T09:09:26.073Z,19.95
2022-12-19T09:11:52.577Z,19.48
2022-12-19T09:14:21.511Z,17.92
2022-12-19T09:16:48.705Z,21.90
2022-12-19T09:19:16.476Z,21.92
2022-12-19T09:21:43.307Z,18.10
2022-12-19T09:24:11.003Z,18.77
2022-12-19T09:26:42.129Z,19.10
2022-12-19T09:29:20.343Z,19.07
2022-12-19T09:31:51.579Z,17.15
2022-12-19T09:34:22.820Z,18.13
2022-12-19T09:36:50.964Z,17.13
2022-12-19T09:39:18.184Z,14.88
2022-12-19T09:42:14.911Z,16.33
2022-12-19T09:45:04.224Z,14.63
2022-12-19T09:47:33.119Z,15.15
2022-12-19T09:50:02.011Z,16.70
2022-12-19T09:52:42.418Z,16.88
2022-12-19T09:55:35.245Z,15.80
2022-12-19T09:58:18.465Z,14.98
2022-12-19T10:01:00.057Z,14.65
2022-12-19T10:03:29.955Z,14.38
2022-12-19T10:07:18.325Z,14.50
2022-12-19T10:10:29.179Z,13.87
2022-12-19T10:12:39.852Z,16.75
2022-12-19T10:14:59.268Z,13.55
2022-12-19T10:17:50.283Z,15.60
2022-12-19T10:20:36.710Z,14.13
2022-12-19T10:23:35.662Z,14.57
2022-12-19T10:26:23.393Z,14.40
2022-12-19T10:29:22.847Z,13.52
2022-12-19T10:32:00.304Z,12.85
2022-12-19T10:34:38.565Z,13.52
2022-12-19T10:37:47.301Z,13.73
2022-12-19T10:40:27.907Z,13.32
2022-12-19T10:43:34.699Z,14.88
2022-12-19T10:46:13.684Z,13.10
2022-12-19T10:48:40.343Z,15.25
2022-12-19T10:51:13.859Z,14.70
2022-12-19T10:53:40.350Z,11.75
2022-12-19T10:56:18.835Z,15.02
2022-12-19T10:58:45.743Z,13.52
2022-12-19T11:01:26.602Z,14.95
2022-12-19T11:04:15.538Z,15.17
2022-12-19T11:06:51.741Z,12.55
2022-12-19T11:09:18.491Z,14.32
2022-12-19T11:13:20.108Z,13.48
2022-12-19T11:19:13.317Z,14.45
2022-12-19T11:29:14.855Z,14.53
2022-12-19T11:29:17.342Z,13.20
2022-12-19T11:29:36.497Z,12.45
2022-12-19T11:29:42.535Z,13.27
2022-12-19T11:30:38.645Z,14.63
2022-12-19T11:34:25.187Z,13.05
2022-12-19T11:37:03.819Z,13.13
2022-12-19T11:39:36.874Z,13.32
2022-12-19T11:42:23.354Z,12.65
2022-12-19T11:45:07.517Z,13.80
2022-12-19T11:47:42.208Z,14.05
2022-12-19T11:50:18.125Z,13.93
2022-12-19T11:53:16.560Z,11.20
2022-12-19T11:56:00.978Z,12.18
2022-12-19T11:58:29.494Z,10.87
2022-12-19T12:01:17.797Z,11.45
2022-12-19T12:04:04.828Z,12.13
2022-12-19T12:06:42.297Z,11.68
2022-12-19T12:12:27.069Z,11.75
2022-12-19T12:22:10.279Z,11.93
2022-12-19T12:26:37.403Z,10.63
2022-12-19T12:28:51.891Z,11.27
2022-12-19T12:31:05.045Z,11.38
2022-12-19T12:31:16.209Z,10.13
2022-12-19T12:31:42.783Z,12.17
2022-12-19T12:35:56.946Z,11.15
2022-12-19T12:36:00.035Z,10.98
2022-12-19T12:40:36.604Z,9.43
2022-12-19T12:43:12.295Z,10.60
2022-12-19T12:45:40.778Z,9.95
2022-12-19T12:48:31.397Z,8.40
2022-12-19T12:51:00.446Z,8.02
2022-12-19T12:53:33.375Z,8.35
2022-12-19T12:56:03.179Z,8.43
2022-12-19T12:58:54.144Z,8.00
2022-12-19T13:01:30.302Z,8.20
2022-12-19T13:04:02.753Z,8.52
2022-12-19T13:06:40.622Z,7.90
2022-12-19T13:09:10.037Z,7.37
2022-12-19T13:12:04.639Z,6.95
2022-12-19T13:14:33.867Z,7.78
2022-12-19T13:17:02.381Z,6.82
2022-12-19T13:19:34.232Z,7.20
2022-12-19T13:22:17.539Z,6.67
2022-12-19T13:24:55.973Z,5.65
2022-12-19T13:27:22.608Z,6.13
2022-12-19T13:30:01.140Z,5.43
2022-12-19T13:32:32.639Z,5.78
2022-12-19T13:35:32.635Z,6.30
2022-12-19T13:39:48.863Z,5.97
2022-12-19T13:40:43.835Z,6.10
2022-12-19T13:43:38.230Z,6.10
2022-12-19T13:46:23.507Z,5.55
2022-12-19T13:48:53.877Z,6.27
2022-12-19T13:51:20.472Z,5.60
2022-12-19T13:53:59.062Z,5.78
2022-12-19T13:56:30.328Z,6.40
2022-12-19T13:59:00.584Z,6.57
2022-12-19T14:01:29.602Z,6.47
2022-12-19T14:03:59.056Z,5.30
2022-12-19T14:06:47.082Z,5.45
2022-12-19T14:11:28.828Z,5.72
2022-12-19T14:13:58.818Z,6.43
2022-12-19T14:15:34.870Z,5.20
2022-12-19T14:18:41.913Z,5.82
2022-12-19T14:22:04.468Z,5.82
2022-12-19T14:23:43.559Z,6.28
2022-12-19T14:28:23.323Z,5.75
2022-12-19T14:29:45.390Z,7.40
2022-12-19T14:33:40.975Z,6.63
2022-12-19T14:36:06.105Z,7.13
2022-12-19T14:39:19.526Z,6.55
2022-12-19T14:41:07.371Z,7.55
2022-12-19T14:51:25.657Z,8.27
2022-12-19T14:52:35.063Z,6.93
2022-12-19T14:54:11.820Z,7.40
2022-12-19T14:54:23.527Z,6.95
2022-12-19T14:56:12.224Z,7.05
2022-12-19T14:58:54.601Z,8.07
2022-12-19T15:01:09.198Z,7.75
2022-12-19T15:04:47.329Z,8.80
2022-12-19T15:07:09.010Z,9.20
2022-12-19T15:11:04.922Z,8.40
2022-12-19T15:14:03.995Z,8.07
2022-12-19T15:15:26.025Z,8.25
2022-12-19T15:17:55.326Z,9.23
2022-12-19T15:20:21.989Z,8.93
2022-12-19T15:22:48.507Z,8.70
2022-12-19T15:25:52.791Z,9.67
2022-12-19T15:28:13.362Z,10.30
2022-12-19T15:30:41.147Z,10.15
2022-12-19T15:33:15.670Z,9.23
2022-12-19T15:35:43.025Z,8.55
2022-12-19T15:38:10.715Z,13.33
2022-12-19T15:40:39.556Z,10.65
2022-12-19T15:43:06.638Z,10.40
2022-12-19T15:45:33.533Z,9.93
2022-12-19T15:48:00.295Z,10.70
2022-12-19T15:50:29.613Z,10.03
2022-12-19T15:52:58.991Z,10.50
2022-12-19T15:55:28.894Z,9.98
2022-12-19T15:58:05.249Z,10.75
2022-12-19T16:00:36.691Z,10.70
2022-12-19T16:05:49.800Z,9.93
2022-12-19T16:08:21.562Z,10.20
2022-12-19T16:11:01.493Z,10.02
2022-12-19T16:13:35.047Z,9.68
2022-12-19T16:16:06.520Z,9.83
2022-12-19T16:18:39.400Z,9.65
2022-12-19T16:21:05.963Z,10.13
2022-12-19T16:23:32.465Z,10.55
2022-12-19T16:25:59.934Z,10.25
2022-12-19T16:28:29.667Z,10.00
2022-12-19T16:30:58.069Z,9.93
2022-12-19T16:33:28.624Z,9.77
2022-12-19T16:36:04.150Z,10.38
2022-12-19T16:38:31.550Z,8.82
2022-12-19T16:40:58.046Z,9.17
2022-12-19T16:43:36.283Z,9.40
2022-12-19T16:46:06.028Z,10.73
2022-12-19T16:48:35.479Z,10.23
2022-12-19T16:51:02.214Z,10.20
2022-12-19T16:53:29.696Z,9.13
2022-12-19T16:55:57.073Z,9.25
2022-12-19T16:58:28.304Z,9.90
2022-12-19T17:00:55.702Z,9.23
2022-12-19T17:03:37.563Z,9.70
2022-12-19T17:06:04.641Z,10.47
2022-12-19T17:08:32.550Z,9.07
2022-12-19T17:10:59.203Z,9.68
2022-12-19T17:13:25.983Z,10.30
2022-12-19T17:15:56.785Z,10.25
2022-12-19T17:18:35.673Z,8.43
2022-12-19T17:21:02.835Z,9.60
2022-12-19T17:23:32.395Z,9.00
2022-12-19T17:26:00.490Z,8.10
2022-12-19T17:28:28.442Z,8.57
2022-12-19T17:30:57.652Z,8.70
2022-12-19T17:33:31.851Z,8.23
2022-12-19T17:36:01.207Z,8.20
2022-12-19T17:38:27.693Z,8.07
2022-12-19T17:40:54.602Z,8.60
2022-12-19T17:43:21.086Z,7.13
2022-12-19T17:45:47.873Z,7.57
2022-12-19T17:48:31.583Z,8.35
2022-12-19T17:50:59.129Z,8.25
2022-12-19T17:53:26.463Z,7.22
2022-12-19T17:55:52.975Z,6.63
2022-12-19T17:58:19.523Z,6.43
2022-12-19T18:00:47.420Z,6.50
2022-12-19T18:03:24.013Z,6.35
2022-12-19T18:05:53.252Z,6.82
2022-12-19T18:08:29.533Z,6.93
2022-12-19T18:10:58.641Z,6.95
2022-12-19T18:13:27.122Z,7.20
2022-12-19T18:15:57.351Z,7.22
2022-12-19T18:18:29.034Z,6.72
2022-12-19T18:20:55.761Z,7.20
2022-12-19T18:23:23.580Z,7.57
2022-12-19T18:25:53.626Z,9.05
2022-12-19T18:28:24.373Z,6.78
2022-12-19T18:30:52.398Z,8.05
2022-12-19T18:33:23.526Z,7.10
2022-12-19T18:35:50.943Z,6.97
2022-12-19T18:38:20.984Z,6.05
2022-12-19T18:40:48.753Z,6.78
2022-12-19T18:43:16.522Z,5.65
2022-12-19T18:45:47.413Z,5.87
2022-12-19T18:48:20.474Z,6.43
2022-12-19T18:50:46.983Z,6.00
2022-12-19T18:53:15.914Z,5.80
2022-12-19T18:55:42.510Z,6.18
2022-12-19T18:58:08.906Z,6.23
2022-12-19T19:00:38.380Z,5.80
2022-12-19T19:03:10.774Z,5.43
2022-12-19T19:05:39.178Z,6.47
2022-12-19T19:08:15.118Z,6.28
2022-12-19T19:10:41.789Z,6.20
2022-12-19T19:13:11.251Z,5.50
2022-12-19T19:15:51.442Z,6.05
2022-12-19T19:18:30.018Z,5.97
2022-12-19T19:21:01.045Z,5.43
2022-12-19T19:23:32.929Z,5.60
2022-12-19T19:25:59.665Z,5.60
2022-12-19T19:28:26.199Z,6.18
2022-12-19T19:30:52.907Z,5.65
2022-12-19T19:33:23.511Z,6.78
2022-12-19T19:35:56.142Z,6.00
2022-12-19T19:38:23.487Z,6.68
2022-12-19T19:40:50.288Z,5.78
2022-12-19T19:43:16.843Z,5.75
2022-12-19T19:45:43.835Z,5.47
2022-12-19T19:48:10.723Z,5.60
2022-12-19T19:50:37.391Z,6.15
2022-12-19T19:53:05.069Z,5.07
2022-12-19T19:55:31.678Z,5.25
2022-12-19T19:57:58.221Z,5.30
2022-12-19T20:00:27.170Z,6.47
2022-12-19T20:02:53.928Z,5.07
2022-12-19T20:05:20.594Z,5.63
2022-12-19T20:07:47.072Z,5.15
2022-12-19T20:10:13.625Z,4.88
2022-12-19T20:12:40.132Z,4.90
2022-12-19T20:15:07.299Z,5.25
2022-12-19T20:17:34.091Z,5.72
2022-12-19T20:20:00.605Z,4.82
2022-12-19T20:22:28.806Z,5.03
2022-12-19T20:24:55.405Z,4.27
2022-12-19T20:27:21.868Z,4.95
2022-12-19T20:29:48.373Z,4.28
2022-12-19T20:32:15.043Z,3.05
2022-12-19T20:34:41.549Z,3.63
2022-12-19T20:37:08.114Z,3.50
2022-12-19T20:39:34.770Z,4.28
2022-12-19T20:42:01.517Z,4.45
2022-12-19T20:44:28.127Z,4.13
2022-12-19T20:46:54.789Z,3.70
2022-12-19T20:49:23.020Z,3.30
2022-12-19T20:51:49.591Z,3.40
2022-12-19T20:54:16.469Z,2.70
2022-12-19T20:56:43.065Z,3.17
2022-12-19T20:59:10.259Z,3.45
2022-12-19T21:01:37.801Z,2.73
2022-12-19T21:04:05.116Z,2.90
2022-12-19T21:06:32.059Z,3.70
2022-12-19T21:08:59.825Z,3.10
2022-12-19T21:11:26.680Z,3.20
2022-12-19T21:13:54.753Z,3.20
2022-12-19T21:16:22.479Z,3.30
2022-12-19T21:18:51.022Z,3.53
2022-12-19T21:21:21.131Z,3.00
2022-12-19T21:23:48.560Z,3.33
2022-12-19T21:26:15.192Z,3.13
2022-12-19T21:28:41.831Z,3.22
2022-12-19T21:31:20.778Z,3.33
2022-12-19T21:33:48.366Z,2.92
2022-12-19T21:36:20.525Z,3.05
2022-12-19T21:38:49.268Z,3.83
2022-12-19T21:41:18.951Z,3.28
2022-12-19T21:43:47.642Z,3.10
2022-12-19T21:46:15.912Z,2.92
2022-12-19T21:48:45.434Z,3.28
2022-12-19T21:51:12.922Z,3.07
2022-12-19T21:53:40.225Z,3.10
2022-12-19T21:56:23.350Z,3.70
2022-12-19T21:58:54.297Z,3.47
2022-12-19T22:01:21.495Z,3.33
2022-12-19T22:03:48.303Z,3.20
2022-12-19T22:06:25.525Z,3.13
2022-12-19T22:08:54.138Z,2.90
2022-12-19T22:11:21.592Z,2.97
2022-12-19T22:13:48.808Z,3.55
2022-12-19T22:16:16.081Z,2.53
2022-12-19T22:18:43.442Z,2.65
2022-12-19T22:21:15.086Z,2.70
2022-12-19T22:23:42.319Z,3.00
2022-12-19T22:26:21.083Z,2.85
2022-12-19T22:28:52.255Z,2.80
2022-12-19T22:31:18.789Z,2.83
2022-12-19T22:33:46.165Z,3.30
2022-12-19T22:36:15.548Z,2.50
2022-12-19T22:38:45.997Z,2.60
2022-12-19T22:41:13.065Z,2.60
2022-12-19T22:43:40.217Z,2.72
2022-12-19T22:46:14.693Z,3.00
2022-12-19T22:48:43.001Z,2.60
2022-12-19T22:51:10.228Z,2.00
2022-12-19T22:53:38.356Z,2.33
2022-12-19T22:56:13.101Z,2.83
2022-12-19T22:58:42.066Z,2.60
2022-12-19T23:01:18.668Z,2.67
2022-12-19T23:03:46.931Z,2.85
2022-12-19T23:06:14.374Z,2.77
2022-12-19T23:08:41.276Z,2.42
2022-12-19T23:11:11.305Z,2.90
2022-12-19T23:13:39.233Z,3.00
2022-12-19T23:16:05.807Z,2.95
2022-12-19T23:18:32.329Z,2.60
2022-12-19T23:21:09.242Z,2.58
2022-12-19T23:23:42.472Z,2.78
2022-12-19T23:26:15.593Z,2.25
2022-12-19T23:28:44.903Z,3.53
2022-12-19T23:31:13.338Z,2.43
2022-12-19T23:33:39.833Z,2.53
2022-12-19T23:36:06.721Z,2.53
2022-12-19T23:38:33.293Z,2.53
2022-12-19T23:41:06.205Z,2.47
2022-12-19T23:43:34.475Z,2.80
2022-12-19T23:46:09.622Z,2.47
2022-12-19T23:48:36.444Z,2.60
2022-12-19T23:51:05.847Z,2.08
2022-12-19T23:53:33.030Z,2.70
2022-12-19T23:56:00.896Z,2.30
2022-12-19T23:58:27.413Z,2.65
